Arden, NC

6:03 PM EDT on September 02, 2015 (GMT -0400)
Drakes Meadow | | Change Station
CLOSE
Current Station
Personal Weather Station
Location: Arden, NC
Elevation: 2218 ft
Nearby Weather Stations

Elev 2218 ft 35.48 °N, 82.48 °W | Updated 7 minutes ago

Overcast
Overcast
74.1 °F
Feels Like 71 °F
N
0.0
Wind Variable Wind from West

Today
High -- | Low -- °F
--% Chance of Precip.
Yesterday
High -- | Low -- °F
Precip. -- in
7:02 AM 7:56 PM
Waning Gibbous, 77% visible
Pressure 30.00 in
Visibility 10.0 miles
Clouds Mostly Cloudy 6000 ft
Overcast 7500 ft
Heat Index 71 °F
Dew Point 73 °F
Humidity 96%
Rainfall 0.15 in
Snow Depth Not available.
UV 1 out of 12
Pollen 9.00 out of 12
Air Quality Not available.
Flu Activity Not available.
METAR KAVL 022154Z 23006KT 10SM BKN060 OVC075 29/18 A3008 RMK AO2 TSB08 SLP158 T02890183
Pressure 30.00 in
Visibility 10.0 miles
Clouds Mostly Cloudy 6000 ft
Overcast 7500 ft
Heat Index 71 °F
Dew Point 73 °F
Humidity 96%
Rainfall 0.15 in
Snow Depth Not available.
UV 1 out of 12
Pollen 9.00 out of 12
Air Quality Not available.
Flu Activity Not available.
METAR KAVL 022154Z 23006KT 10SM BKN060 OVC075 29/18 A3008 RMK AO2 TSB08 SLP158 T02890183

10-Day Weather Forecast

×

Almanac

Astronomy

Sep. 02, 2015 Rise Set
Actual Time
Civil Twilight
Nautical Twilight
Astronomical Twilight
Moon
Length of Visible Light
Length of Day
Tomorrow will be .
, % of the Moon is Illuminated

Today's Extremes

State Highs State Lows

Community

WunderPhotos

Upload Photos

1,851,821 photos uploaded!

WunderBlogs® & News

Nearby

Air Quality

  Air Quality AQ Index Pollutant
Not available.

Snow Depth

Station Depth Elevation

Earthquake Activity

City Distance Mag. Time & Date
Minimum magnitude displayed is 2.5.

Coastal Water Temperatures

Place Temperature

Stations

Nearby Weather Stations

Station Location Temp. Windchill Dew Point Humidity Wind Precip. Elev Updated Type